createdAt,value
2017-03-16T00:00:33.665Z,89.29
2017-03-16T00:01:46.197Z,89.48
2017-03-16T00:02:58.723Z,89.39
2017-03-16T00:04:10.939Z,89.48
2017-03-16T00:05:23.510Z,89.67
2017-03-16T00:06:36.056Z,89.77
2017-03-16T00:07:48.583Z,89.67
2017-03-16T00:09:00.806Z,89.67
2017-03-16T00:10:13.316Z,89.39
2017-03-16T00:11:25.811Z,90.05
2017-03-16T00:12:38.313Z,90.15
2017-03-16T00:13:50.543Z,89.86
2017-03-16T00:15:03.084Z,90.24
2017-03-16T00:16:15.327Z,90.34
2017-03-16T00:17:27.823Z,89.96
2017-03-16T00:18:40.347Z,90.53
2017-03-16T00:19:52.896Z,90.43
2017-03-16T00:21:05.129Z,90.81
2017-03-16T00:22:17.657Z,91.09
2017-03-16T00:23:30.153Z,91.19
2017-03-16T00:24:42.348Z,91.09
2017-03-16T00:25:54.854Z,91.47
2017-03-16T00:27:07.386Z,91.62
2017-03-16T00:28:19.037Z,91.71
2017-03-16T00:29:31.553Z,92.38
2017-03-16T00:30:44.083Z,92.09
2017-03-16T00:31:56.867Z,92
2017-03-16T00:33:08.798Z,91.9
2017-03-16T00:34:21.045Z,92.38
2017-03-16T00:35:33.588Z,92.47
2017-03-16T00:36:46.108Z,92.38
2017-03-16T00:37:58.332Z,92.66
2017-03-16T00:39:10.852Z,92.57
2017-03-16T00:40:23.080Z,92.85
2017-03-16T00:41:35.616Z,93.42
2017-03-16T00:42:47.830Z,93.32
2017-03-16T00:44:00.333Z,92.94
2017-03-16T00:45:12.850Z,93.13
2017-03-16T00:46:25.354Z,93.13
2017-03-16T00:47:37.596Z,92.85
2017-03-16T00:48:50.093Z,93.13
2017-03-16T00:50:02.636Z,93.23
2017-03-16T00:51:15.181Z,93.42
2017-03-16T00:52:27.407Z,93.13
2017-03-16T00:53:39.918Z,93.42
2017-03-16T00:54:52.124Z,93.42
2017-03-16T00:56:04.360Z,93.32
2017-03-16T00:57:16.889Z,93.42
2017-03-16T00:58:29.109Z,93.42
2017-03-16T00:59:41.604Z,93.23
2017-03-16T01:00:54.106Z,93.13
2017-03-16T01:02:06.622Z,93.04
2017-03-16T01:03:18.838Z,93.32
2017-03-16T01:04:31.388Z,93.8
2017-03-16T01:05:43.610Z,93.8
2017-03-16T01:06:55.849Z,93.99
2017-03-16T01:08:08.044Z,93.51
2017-03-16T01:09:20.253Z,93.51
2017-03-16T01:10:32.769Z,93.8
2017-03-16T01:11:45.319Z,93.89
2017-03-16T01:12:57.856Z,93.99
2017-03-16T01:14:10.385Z,93.8
2017-03-16T01:15:22.906Z,93.7
2017-03-16T01:16:35.115Z,94.08
2017-03-16T01:17:47.637Z,93.99
2017-03-16T01:19:00.141Z,94.08
2017-03-16T01:20:12.678Z,94.08
2017-03-16T01:21:24.874Z,94.08
2017-03-16T01:22:36.794Z,93.99
2017-03-16T01:23:49.326Z,93.99
2017-03-16T01:25:01.849Z,94.37
2017-03-16T01:26:14.091Z,94.27
2017-03-16T01:27:26.612Z,94.74
2017-03-16T01:28:38.838Z,94.46
2017-03-16T01:29:51.048Z,94.32
2017-03-16T01:31:03.299Z,94.42
2017-03-16T01:32:15.812Z,95.07
2017-03-16T01:33:28.008Z,94.65
2017-03-16T01:34:40.539Z,94.65
2017-03-16T01:35:52.776Z,94.98
2017-03-16T01:37:05.329Z,94.98
2017-03-16T01:38:17.829Z,95.74
2017-03-16T01:39:30.075Z,95.36
2017-03-16T01:40:42.594Z,95.36
2017-03-16T01:41:55.130Z,95.55
2017-03-16T01:43:07.653Z,95.26
2017-03-16T01:44:19.883Z,95.45
2017-03-16T01:45:32.076Z,95.55
2017-03-16T01:46:44.618Z,95.55
2017-03-16T01:47:57.372Z,95.93
2017-03-16T01:49:09.910Z,96.12
2017-03-16T01:50:22.163Z,96.12
2017-03-16T01:51:34.388Z,96.02
2017-03-16T01:52:46.930Z,96.97
2017-03-16T01:53:59.464Z,96.88
2017-03-16T01:55:11.959Z,96.88
2017-03-16T01:56:24.183Z,96.88
2017-03-16T01:57:36.385Z,97.44
2017-03-16T01:58:48.900Z,97.06
2017-03-16T02:00:01.146Z,97.25
2017-03-16T02:01:13.051Z,97.25
2017-03-16T02:02:25.271Z,97.44
2017-03-16T02:03:37.780Z,97.16
2017-03-16T02:04:50.003Z,97.35
2017-03-16T02:06:02.531Z,97.25
2017-03-16T02:07:14.468Z,97.35
2017-03-16T02:08:27.003Z,97.54
2017-03-16T02:09:39.514Z,97.54
2017-03-16T02:10:52.042Z,97.73
2017-03-16T02:12:04.577Z,97.92
2017-03-16T02:13:16.798Z,97.63
2017-03-16T02:14:29.052Z,97.63
2017-03-16T02:15:41.570Z,97.54
2017-03-16T02:16:54.123Z,97.63
2017-03-16T02:18:06.346Z,97.44
2017-03-16T02:19:18.885Z,97.54
2017-03-16T02:20:31.424Z,97.54
2017-03-16T02:21:43.330Z,98.01
2017-03-16T02:22:55.565Z,97.73
2017-03-16T02:24:08.069Z,97.82
2017-03-16T02:25:20.561Z,97.44
2017-03-16T02:26:33.106Z,97.82
2017-03-16T02:27:45.329Z,98.2
2017-03-16T02:28:57.552Z,98.11
2017-03-16T02:30:10.078Z,98.2
2017-03-16T02:31:22.640Z,98.11
2017-03-16T02:32:34.840Z,98.3
2017-03-16T02:33:47.039Z,98.2
2017-03-16T02:34:59.557Z,98.2
2017-03-16T02:36:12.053Z,98.3
2017-03-16T02:37:24.578Z,97.92
2017-03-16T02:38:37.120Z,98.01
2017-03-16T02:39:49.348Z,97.44
2017-03-16T02:41:01.886Z,97.73
2017-03-16T02:42:13.762Z,97.78
2017-03-16T02:43:26.328Z,97.73
2017-03-16T02:44:38.828Z,97.59
2017-03-16T02:45:51.067Z,97.78
2017-03-16T02:47:03.594Z,97.78
2017-03-16T02:48:16.133Z,97.68
2017-03-16T02:49:28.679Z,97.97
2017-03-16T02:50:41.197Z,97.97
2017-03-16T02:51:53.725Z,97.59
2017-03-16T02:53:05.663Z,97.59
2017-03-16T02:54:17.867Z,97.21
2017-03-16T02:55:30.092Z,97.21
2017-03-16T02:56:42.626Z,97.02
2017-03-16T02:57:55.126Z,97.11
2017-03-16T02:59:07.670Z,97.4
2017-03-16T03:00:18.989Z,97.59
2017-03-16T03:01:31.518Z,97.11
2017-03-16T03:02:44.039Z,97.11
2017-03-16T03:03:56.580Z,96.73
2017-03-16T03:05:09.125Z,96.83
2017-03-16T03:06:21.351Z,96.83
2017-03-16T03:07:33.869Z,96.73
2017-03-16T03:08:46.363Z,96.92
2017-03-16T03:09:58.618Z,96.73
2017-03-16T03:11:10.528Z,96.36
2017-03-16T03:12:23.056Z,96.83
2017-03-16T03:13:35.594Z,96.12
2017-03-16T03:14:48.081Z,96.26
2017-03-16T03:16:00.623Z,95.79
2017-03-16T03:17:13.183Z,96.22
2017-03-16T03:18:25.392Z,95.79
2017-03-16T03:19:37.928Z,96.07
2017-03-16T03:20:49.545Z,96.07
2017-03-16T03:22:02.048Z,96.07
2017-03-16T03:23:14.590Z,95.98
2017-03-16T03:24:26.839Z,95.79
2017-03-16T03:25:39.365Z,95.88
2017-03-16T03:26:51.899Z,96.26
2017-03-16T03:28:04.120Z,96.26
2017-03-16T03:29:16.628Z,96.36
2017-03-16T03:30:28.862Z,96.17
2017-03-16T03:31:41.644Z,96.17
2017-03-16T03:32:54.161Z,96.17
2017-03-16T03:34:06.067Z,96.26
2017-03-16T03:35:18.578Z,96.73
2017-03-16T03:36:31.096Z,97.02
2017-03-16T03:37:43.624Z,96.73
2017-03-16T03:38:55.540Z,96.92
2017-03-16T03:40:08.033Z,96.92
2017-03-16T03:41:20.541Z,96.73
2017-03-16T03:42:32.481Z,96.73
2017-03-16T03:43:44.980Z,97.4
2017-03-16T03:44:57.200Z,97.4
2017-03-16T03:46:09.736Z,97.3
2017-03-16T03:47:21.960Z,97.59
2017-03-16T03:48:34.489Z,97.68
2017-03-16T03:49:47.032Z,97.4
2017-03-16T03:50:59.575Z,97.97
2017-03-16T03:52:12.123Z,97.97
2017-03-16T03:53:24.659Z,97.49
2017-03-16T03:54:37.183Z,97.59
2017-03-16T03:55:49.729Z,97.87
2017-03-16T03:57:01.954Z,98.25
2017-03-16T03:58:14.475Z,98.25
2017-03-16T03:59:26.976Z,98.2
2017-03-16T04:00:39.510Z,98.2
2017-03-16T04:01:52.041Z,98.11
2017-03-16T04:03:04.255Z,97.92
2017-03-16T04:04:16.809Z,98.39
2017-03-16T04:05:29.355Z,98.11
2017-03-16T04:06:41.872Z,98.39
2017-03-16T04:07:54.389Z,98.3
2017-03-16T04:09:06.918Z,98.49
2017-03-16T04:10:19.460Z,98.49
2017-03-16T04:11:31.701Z,98.49
2017-03-16T04:12:44.231Z,99.24
2017-03-16T04:13:56.490Z,99.05
2017-03-16T04:15:09.020Z,98.68
2017-03-16T04:16:21.240Z,99.15
2017-03-16T04:17:33.760Z,98.86
2017-03-16T04:18:46.277Z,99.05
2017-03-16T04:19:59.048Z,98.77
2017-03-16T04:21:10.990Z,98.58
2017-03-16T04:22:23.553Z,98.68
2017-03-16T04:23:35.768Z,99.43
2017-03-16T04:24:48.310Z,99.33
2017-03-16T04:26:00.809Z,99.33
2017-03-16T04:27:13.318Z,99.9
2017-03-16T04:28:25.843Z,99.62
2017-03-16T04:29:37.789Z,99.43
2017-03-16T04:30:50.322Z,99.71
2017-03-16T04:32:02.840Z,99.52
2017-03-16T04:33:15.088Z,99.81
2017-03-16T04:34:27.021Z,99.71
2017-03-16T04:35:39.245Z,99.52
2017-03-16T04:36:51.765Z,99.62
2017-03-16T04:38:04.311Z,99.43
2017-03-16T04:39:16.816Z,99.62
2017-03-16T04:40:29.336Z,99.52
2017-03-16T04:41:41.849Z,99.62
2017-03-16T04:42:54.378Z,99.52
2017-03-16T04:44:06.913Z,99.52
2017-03-16T04:45:19.445Z,99.9
2017-03-16T04:46:31.955Z,99.71
2017-03-16T04:47:44.485Z,99.52
2017-03-16T04:48:57.035Z,99.99
2017-03-16T04:50:09.274Z,99.9
2017-03-16T04:51:21.767Z,99.9
2017-03-16T04:52:34.542Z,99.81
2017-03-16T04:53:46.790Z,99.81
2017-03-16T04:54:59.007Z,99.71
2017-03-16T04:56:11.232Z,99.9
2017-03-16T04:57:23.175Z,99.81
2017-03-16T04:58:35.677Z,99.9
2017-03-16T04:59:48.212Z,99.71
2017-03-16T05:01:00.730Z,99.9
2017-03-16T05:02:12.950Z,99.62
2017-03-16T05:03:25.097Z,99.9
2017-03-16T05:04:37.618Z,99.9
2017-03-16T05:05:49.817Z,99.99
2017-03-16T05:07:02.349Z,99.9
2017-03-16T05:08:14.588Z,99.81
2017-03-16T05:09:27.102Z,99.52
2017-03-16T05:10:39.606Z,99.52
2017-03-16T05:11:52.101Z,99.52
2017-03-16T05:13:04.651Z,99.52
2017-03-16T05:14:16.872Z,99.52
2017-03-16T05:15:29.381Z,99.62
2017-03-16T05:16:41.285Z,99.62
2017-03-16T05:17:53.811Z,99.71
2017-03-16T05:19:06.343Z,99.52
2017-03-16T05:20:18.878Z,99.71
2017-03-16T05:21:31.421Z,99.62
2017-03-16T05:22:43.964Z,99.71
2017-03-16T05:23:56.463Z,99.71
2017-03-16T05:25:08.934Z,99.62
2017-03-16T05:26:21.444Z,99.62
2017-03-16T05:27:33.348Z,99.62
2017-03-16T05:28:45.895Z,99.71
2017-03-16T05:29:58.440Z,99.62
2017-03-16T05:31:10.957Z,99.71
2017-03-16T05:32:23.206Z,99.62
2017-03-16T05:33:35.727Z,99.62
2017-03-16T05:34:47.970Z,99.62
2017-03-16T05:36:00.494Z,99.43
2017-03-16T05:37:12.123Z,99.52
2017-03-16T05:38:24.329Z,99.33
2017-03-16T05:39:36.260Z,99.71
2017-03-16T05:40:48.195Z,99.62
2017-03-16T05:42:00.695Z,99.62
2017-03-16T05:43:13.224Z,99.33
2017-03-16T05:44:25.766Z,99.52
2017-03-16T05:45:38.278Z,99.52
2017-03-16T05:46:51.057Z,99.43
2017-03-16T05:48:03.579Z,99.52
2017-03-16T05:49:15.821Z,99.99
2017-03-16T05:50:28.363Z,99.43
2017-03-16T05:51:40.562Z,99.62
2017-03-16T05:52:52.490Z,99.52
2017-03-16T05:54:05.013Z,99.62
2017-03-16T05:55:17.555Z,99.71
2017-03-16T05:56:30.067Z,99.62
2017-03-16T05:57:42.588Z,99.62
2017-03-16T05:58:55.134Z,99.52
2017-03-16T06:00:07.665Z,99.43
2017-03-16T06:01:20.233Z,98.96
2017-03-16T06:02:32.750Z,99.15
2017-03-16T06:03:45.296Z,98.86
2017-03-16T06:04:57.830Z,99.24
2017-03-16T06:06:10.360Z,98.91
2017-03-16T06:07:22.859Z,99.01
2017-03-16T06:08:35.109Z,99.1
2017-03-16T06:09:47.626Z,98.82
2017-03-16T06:11:00.176Z,98.82
2017-03-16T06:12:12.721Z,98.63
2017-03-16T06:13:24.668Z,98.72
2017-03-16T06:14:37.208Z,98.44
2017-03-16T06:15:49.434Z,98.44
2017-03-16T06:17:02.005Z,98.63
2017-03-16T06:18:14.227Z,98.44
2017-03-16T06:19:26.453Z,98.44
2017-03-16T06:20:38.946Z,98.54
2017-03-16T06:21:51.497Z,98.63
2017-03-16T06:23:03.731Z,98.35
2017-03-16T06:24:16.260Z,98.16
2017-03-16T06:25:28.460Z,98.35
2017-03-16T06:26:40.697Z,98.25
2017-03-16T06:27:53.222Z,98.54
2017-03-16T06:29:05.758Z,97.97
2017-03-16T06:30:18.531Z,97.87
2017-03-16T06:31:30.751Z,97.97
2017-03-16T06:32:42.995Z,97.97
2017-03-16T06:33:55.516Z,97.87
2017-03-16T06:35:08.039Z,98.06
2017-03-16T06:36:19.968Z,97.78
2017-03-16T06:37:32.506Z,97.68
2017-03-16T06:38:45.048Z,97.64
2017-03-16T06:39:57.573Z,97.45
2017-03-16T06:41:10.366Z,97.26
2017-03-16T06:42:22.572Z,97.45
2017-03-16T06:43:35.116Z,96.41
2017-03-16T06:44:47.654Z,97.07
2017-03-16T06:46:00.186Z,96.88
2017-03-16T06:47:12.428Z,96.5
2017-03-16T06:48:24.949Z,96.41
2017-03-16T06:49:37.498Z,96.22
2017-03-16T06:50:49.736Z,96.12
2017-03-16T06:52:01.961Z,96.17
2017-03-16T06:53:13.841Z,95.6
2017-03-16T06:54:26.355Z,95.69
2017-03-16T06:55:38.894Z,95.5
2017-03-16T06:56:51.116Z,95.22
2017-03-16T06:58:03.646Z,95.88
2017-03-16T06:59:15.846Z,95.22
2017-03-16T07:00:28.078Z,94.74
2017-03-16T07:01:40.597Z,94.84
2017-03-16T07:02:53.367Z,94.18
2017-03-16T07:04:05.895Z,93.84
2017-03-16T07:05:18.136Z,93.75
2017-03-16T07:06:30.363Z,94.03
2017-03-16T07:07:42.880Z,93.27
2017-03-16T07:08:55.434Z,93.08
2017-03-16T07:10:07.367Z,93.18
2017-03-16T07:11:19.599Z,93.27
2017-03-16T07:12:32.146Z,92.9
2017-03-16T07:13:44.693Z,92.71
2017-03-16T07:14:56.930Z,91.99
2017-03-16T07:16:09.479Z,91.8
2017-03-16T07:17:21.401Z,91.24
2017-03-16T07:18:33.925Z,91.52
2017-03-16T07:19:46.462Z,91.04
2017-03-16T07:20:58.709Z,90.57
2017-03-16T07:22:11.263Z,90.95
2017-03-16T07:23:23.805Z,90.38
2017-03-16T07:24:36.326Z,90
2017-03-16T07:25:48.867Z,89.76
2017-03-16T07:27:01.068Z,89.57
2017-03-16T07:28:13.014Z,89.57
2017-03-16T07:29:25.535Z,89.67
2017-03-16T07:30:37.774Z,89.38
2017-03-16T07:31:50.297Z,89.38
2017-03-16T07:33:02.840Z,88.81
2017-03-16T07:34:15.069Z,88.81
2017-03-16T07:35:27.320Z,88.53
2017-03-16T07:36:39.563Z,88.34
2017-03-16T07:37:51.506Z,88.24
2017-03-16T07:39:04.020Z,87.86
2017-03-16T07:40:16.250Z,87.62
2017-03-16T07:41:28.490Z,87.29
2017-03-16T07:42:40.709Z,87.48
2017-03-16T07:43:53.228Z,87.24
2017-03-16T07:45:05.460Z,87.19
2017-03-16T07:46:17.706Z,87.38
2017-03-16T07:47:29.977Z,86.86
2017-03-16T07:48:42.498Z,86.63
2017-03-16T07:49:55.058Z,86.82
2017-03-16T07:51:07.607Z,87.34
2017-03-16T07:52:19.874Z,87.52
2017-03-16T07:53:32.084Z,87.38
2017-03-16T07:54:44.624Z,87.43
2017-03-16T07:55:57.170Z,87.34
2017-03-16T07:57:09.965Z,87.14
2017-03-16T07:58:21.881Z,87.43
2017-03-16T07:59:34.154Z,87.05
2017-03-16T08:00:46.696Z,86.86
2017-03-16T08:01:58.903Z,86.47
2017-03-16T08:03:10.841Z,86.57
2017-03-16T08:04:23.383Z,86.38
2017-03-16T08:05:35.908Z,86.29
2017-03-16T08:06:48.151Z,85.91
2017-03-16T08:08:00.381Z,86.14
2017-03-16T08:09:12.904Z,85.47
2017-03-16T08:10:25.446Z,85.38
2017-03-16T08:11:37.971Z,85.19
2017-03-16T08:12:50.523Z,84.81
2017-03-16T08:14:03.104Z,84.72
2017-03-16T08:15:15.358Z,84.72
2017-03-16T08:16:27.897Z,84.81
2017-03-16T08:17:40.141Z,84.52
2017-03-16T08:18:52.396Z,84
2017-03-16T08:20:04.938Z,84.28
2017-03-16T08:21:17.464Z,84.28
2017-03-16T08:22:30.001Z,83.52
2017-03-16T08:23:42.553Z,83.42
2017-03-16T08:24:55.120Z,83.23
2017-03-16T08:26:07.363Z,82.76
2017-03-16T08:27:19.614Z,82.76
2017-03-16T08:28:32.160Z,82.86
2017-03-16T08:29:44.706Z,82.67
2017-03-16T08:30:57.227Z,82.76
2017-03-16T08:32:09.751Z,83.33
2017-03-16T08:33:22.286Z,82.99
2017-03-16T08:34:34.815Z,82.7
2017-03-16T08:35:47.359Z,82.9
2017-03-16T08:36:59.581Z,82.51
2017-03-16T08:38:12.104Z,82.7
2017-03-16T08:39:24.027Z,82.42
2017-03-16T08:40:36.544Z,82.42
2017-03-16T08:41:48.457Z,82.32
2017-03-16T08:43:00.065Z,81.85
2017-03-16T08:44:12.581Z,82.23
2017-03-16T08:45:25.123Z,81.76
2017-03-16T08:46:37.674Z,81.47
2017-03-16T08:47:50.221Z,81.37
2017-03-16T08:49:02.736Z,81.85
2017-03-16T08:50:15.004Z,81.28
2017-03-16T08:51:27.532Z,81.7
2017-03-16T08:52:39.782Z,81.32
2017-03-16T08:53:52.016Z,81.6
2017-03-16T08:55:04.562Z,80.55
2017-03-16T08:56:17.058Z,80.75
2017-03-16T08:57:29.264Z,80.65
2017-03-16T08:58:41.207Z,80.55
2017-03-16T08:59:53.721Z,80.27
2017-03-16T09:01:05.970Z,80.46
2017-03-16T09:02:17.916Z,80.31
2017-03-16T09:03:30.470Z,79.93
2017-03-16T09:04:43.005Z,79.27
2017-03-16T09:05:55.526Z,79.27
2017-03-16T09:07:07.754Z,80.02
2017-03-16T09:08:19.971Z,79.74
2017-03-16T09:09:32.495Z,79.74
2017-03-16T09:10:45.017Z,79.27
2017-03-16T09:11:57.566Z,79.17
2017-03-16T09:13:09.804Z,78.98
2017-03-16T09:14:21.757Z,79.27
2017-03-16T09:15:34.305Z,78.54
2017-03-16T09:16:46.842Z,78.54
2017-03-16T09:17:59.121Z,78.25
2017-03-16T09:19:11.664Z,78.44
2017-03-16T09:20:23.888Z,78.25
2017-03-16T09:21:36.437Z,78.35
2017-03-16T09:22:48.969Z,78.16
2017-03-16T09:24:01.515Z,77.82
2017-03-16T09:25:14.036Z,77.15
2017-03-16T09:26:25.960Z,77.25
2017-03-16T09:27:38.484Z,77.34
2017-03-16T09:28:51.008Z,77.62
2017-03-16T09:30:03.242Z,77.44
2017-03-16T09:31:14.868Z,77.25
2017-03-16T09:32:27.120Z,77.62
2017-03-16T09:33:39.635Z,77.62
2017-03-16T09:34:52.163Z,77.82
2017-03-16T09:36:04.403Z,78.3
2017-03-16T09:37:16.645Z,77.72
2017-03-16T09:38:29.165Z,77.72
2017-03-16T09:39:41.697Z,77.91
2017-03-16T09:40:54.218Z,77.62
2017-03-16T09:42:06.765Z,77.72
2017-03-16T09:43:19.002Z,77.53
2017-03-16T09:44:31.549Z,77.19
2017-03-16T09:45:43.798Z,76.9
2017-03-16T09:46:56.024Z,77.19
2017-03-16T09:48:08.557Z,77.47
2017-03-16T09:49:20.494Z,76.71
2017-03-16T09:50:33.052Z,76.23
2017-03-16T09:51:44.982Z,76.52
2017-03-16T09:52:57.500Z,76.33
2017-03-16T09:54:09.743Z,76.23
2017-03-16T09:55:22.266Z,75.89
2017-03-16T09:56:34.786Z,76.18
2017-03-16T09:57:47.331Z,76.08
2017-03-16T09:58:59.245Z,75.32
2017-03-16T10:00:11.771Z,75.79
2017-03-16T10:01:24.289Z,75.22
2017-03-16T10:02:36.518Z,75.51
2017-03-16T10:03:49.061Z,76.27
2017-03-16T10:05:01.311Z,75.98
2017-03-16T10:06:13.534Z,76.18
2017-03-16T10:07:25.171Z,75.98
2017-03-16T10:08:37.694Z,76.27
2017-03-16T10:09:49.916Z,76.46
2017-03-16T10:11:02.154Z,76.27
2017-03-16T10:12:14.361Z,75.32
2017-03-16T10:13:26.300Z,75.03
2017-03-16T10:14:38.526Z,75.22
2017-03-16T10:15:51.057Z,75.6
2017-03-16T10:17:03.322Z,75.79
2017-03-16T10:18:15.815Z,75.51
2017-03-16T10:19:28.034Z,76.08
2017-03-16T10:20:40.555Z,75.98
2017-03-16T10:21:52.772Z,75.98
2017-03-16T10:23:05.299Z,76.08
2017-03-16T10:24:16.971Z,76.12
2017-03-16T10:25:29.182Z,75.64
2017-03-16T10:26:41.731Z,74.78
2017-03-16T10:27:54.005Z,74.98
2017-03-16T10:29:06.243Z,75.26
2017-03-16T10:30:18.204Z,74.98
2017-03-16T10:31:30.170Z,74.02
2017-03-16T10:32:42.712Z,73.58
2017-03-16T10:33:54.959Z,73.39
2017-03-16T10:35:07.501Z,73.19
2017-03-16T10:36:19.426Z,72.53
2017-03-16T10:37:31.669Z,73
2017-03-16T10:38:43.919Z,73.19
2017-03-16T10:39:56.460Z,73.39
2017-03-16T10:41:08.692Z,73.48
2017-03-16T10:42:21.224Z,73.29
2017-03-16T10:43:33.445Z,72.91
2017-03-16T10:44:45.669Z,72.72
2017-03-16T10:45:57.901Z,72.62
2017-03-16T10:47:10.461Z,72.85
2017-03-16T10:48:22.689Z,72.18
2017-03-16T10:49:34.935Z,71.8
2017-03-16T10:50:47.481Z,71.89
2017-03-16T10:51:59.741Z,71.61
2017-03-16T10:53:12.261Z,71.99
2017-03-16T10:54:24.469Z,71.61
2017-03-16T10:55:37.013Z,71.51
2017-03-16T10:56:49.278Z,71.89
2017-03-16T10:58:01.509Z,71.61
2017-03-16T10:59:13.167Z,71.7
2017-03-16T11:00:25.673Z,71.13
2017-03-16T11:01:37.921Z,70.84
2017-03-16T11:02:49.844Z,70.94
2017-03-16T11:04:02.087Z,70.94
2017-03-16T11:05:14.296Z,70.56
2017-03-16T11:06:26.796Z,70.56
2017-03-16T11:07:39.041Z,70.78
2017-03-16T11:08:51.291Z,71.55
2017-03-16T11:10:03.516Z,70.78
2017-03-16T11:11:15.762Z,70.3
2017-03-16T11:12:28.309Z,70.87
2017-03-16T11:13:40.870Z,70.94
2017-03-16T11:14:53.421Z,70.68
2017-03-16T11:16:05.645Z,70.78
2017-03-16T11:17:18.192Z,70.97
2017-03-16T11:18:30.433Z,69.92
2017-03-16T11:19:42.964Z,70.3
2017-03-16T11:20:55.193Z,70.68
2017-03-16T11:22:07.741Z,70.4
2017-03-16T11:23:20.296Z,70.87
2017-03-16T11:24:32.831Z,70.59
2017-03-16T11:25:45.037Z,69.82
2017-03-16T11:26:57.575Z,70.01
2017-03-16T11:28:10.118Z,70.3
2017-03-16T11:29:22.347Z,71.07
2017-03-16T11:30:34.886Z,71.16
2017-03-16T11:31:47.418Z,70.68
2017-03-16T11:32:59.976Z,70.68
2017-03-16T11:34:12.484Z,70.11
2017-03-16T11:35:24.749Z,70.59
2017-03-16T11:36:36.975Z,70.78
2017-03-16T11:37:48.935Z,70.3
2017-03-16T11:39:01.144Z,70.36
2017-03-16T11:40:13.656Z,70.68
2017-03-16T11:41:25.912Z,70.5
2017-03-16T11:42:38.122Z,70.4
2017-03-16T11:43:50.372Z,70.01
2017-03-16T11:45:02.915Z,70.3
2017-03-16T11:46:15.439Z,70.78
2017-03-16T11:47:27.978Z,70.87
2017-03-16T11:48:40.498Z,70.68
2017-03-16T11:49:52.705Z,70.59
2017-03-16T11:51:05.253Z,70.4
2017-03-16T11:52:17.522Z,70.4
2017-03-16T11:53:30.069Z,70.68
2017-03-16T11:54:42.615Z,70.78
2017-03-16T11:55:55.160Z,70.3
2017-03-16T11:57:07.696Z,70.59
2017-03-16T11:58:20.216Z,70.01
2017-03-16T11:59:32.740Z,70.78
2017-03-16T12:00:45.283Z,70.3
2017-03-16T12:01:57.507Z,70.01
2017-03-16T12:03:10.032Z,69.64
2017-03-16T12:04:22.570Z,70.11
2017-03-16T12:05:34.802Z,69.06
2017-03-16T12:06:47.038Z,69.15
2017-03-16T12:07:59.258Z,68.77
2017-03-16T12:09:11.807Z,69.35
2017-03-16T12:10:24.074Z,69.06
2017-03-16T12:11:36.623Z,69.86
2017-03-16T12:12:48.850Z,69.67
2017-03-16T12:14:01.099Z,69.57
2017-03-16T12:15:13.659Z,69.57
2017-03-16T12:16:26.208Z,69
2017-03-16T12:17:39.008Z,69.38
2017-03-16T12:18:51.260Z,68.8
2017-03-16T12:20:03.793Z,68.8
2017-03-16T12:21:15.721Z,68.8
2017-03-16T12:22:28.266Z,68.33
2017-03-16T12:23:39.913Z,68.33
2017-03-16T12:24:52.480Z,68.33
2017-03-16T12:26:04.999Z,68.71
2017-03-16T12:27:17.242Z,68.9
2017-03-16T12:28:28.843Z,69.09
2017-03-16T12:29:40.838Z,68.9
2017-03-16T12:30:53.368Z,69
2017-03-16T12:32:05.908Z,68.71
2017-03-16T12:33:18.156Z,68.33
2017-03-16T12:34:30.105Z,68.52
2017-03-16T12:35:42.639Z,68.52
2017-03-16T12:36:55.171Z,68.62
2017-03-16T12:38:07.409Z,68.46
2017-03-16T12:39:19.961Z,68.65
2017-03-16T12:40:32.174Z,68.84
2017-03-16T12:41:44.422Z,68.74
2017-03-16T12:42:56.977Z,67.79
2017-03-16T12:44:09.513Z,67.41
2017-03-16T12:45:21.742Z,67.98
2017-03-16T12:46:34.265Z,67.79
2017-03-16T12:47:46.498Z,67.41
2017-03-16T12:48:58.401Z,67.6
2017-03-16T12:50:10.341Z,67.5
2017-03-16T12:51:22.240Z,67.79
2017-03-16T12:52:34.807Z,67.6
2017-03-16T12:53:47.327Z,66.93
2017-03-16T12:54:59.856Z,66.83
2017-03-16T12:56:12.394Z,67.31
2017-03-16T12:57:24.324Z,67.69
2017-03-16T12:58:36.844Z,67.69
2017-03-16T12:59:49.368Z,67.69
2017-03-16T13:01:01.611Z,67.6
2017-03-16T13:02:14.157Z,68.17
2017-03-16T13:03:26.387Z,67.69
2017-03-16T13:04:38.916Z,67.98
2017-03-16T13:05:51.155Z,67.69
2017-03-16T13:07:03.691Z,68.07
2017-03-16T13:08:15.940Z,67.5
2017-03-16T13:09:28.501Z,67.6
2017-03-16T13:10:41.029Z,67.11
2017-03-16T13:11:53.278Z,67.31
2017-03-16T13:13:05.813Z,66.74
2017-03-16T13:14:17.744Z,67.02
2017-03-16T13:15:29.990Z,67.6
2017-03-16T13:16:42.534Z,67.69
2017-03-16T13:17:55.046Z,67.6
2017-03-16T13:19:07.569Z,67.5
2017-03-16T13:20:19.812Z,67.6
2017-03-16T13:21:32.044Z,67.5
2017-03-16T13:22:44.615Z,66.83
2017-03-16T13:23:56.886Z,67.11
2017-03-16T13:25:08.822Z,67.5
2017-03-16T13:26:21.093Z,67.11
2017-03-16T13:27:33.592Z,67.6
2017-03-16T13:28:45.838Z,68.07
2017-03-16T13:29:58.048Z,68.46
2017-03-16T13:31:10.288Z,68.46
2017-03-16T13:32:22.230Z,68.65
2017-03-16T13:33:34.751Z,68.27
2017-03-16T13:34:47.272Z,68.36
2017-03-16T13:35:59.811Z,67.79
2017-03-16T13:37:11.755Z,67.88
2017-03-16T13:38:23.988Z,68.07
2017-03-16T13:39:36.530Z,68.55
2017-03-16T13:40:49.056Z,68.27
2017-03-16T13:42:01.302Z,68.17
2017-03-16T13:43:13.871Z,68.74
2017-03-16T13:44:26.114Z,68.27
2017-03-16T13:45:38.656Z,68.55
2017-03-16T13:46:50.881Z,68.65
2017-03-16T13:48:03.402Z,68.94
2017-03-16T13:49:15.643Z,68.36
2017-03-16T13:50:27.573Z,68.07
2017-03-16T13:51:40.118Z,68.07
2017-03-16T13:52:52.360Z,68.17
2017-03-16T13:54:04.902Z,68.27
2017-03-16T13:55:17.206Z,68.55
2017-03-16T13:56:29.744Z,68.07
2017-03-16T13:57:42.322Z,68.36
2017-03-16T13:58:54.565Z,68.46
2017-03-16T14:00:07.104Z,67.98
2017-03-16T14:01:19.338Z,67.5
2017-03-16T14:02:31.605Z,67.5
2017-03-16T14:03:44.145Z,66.74
2017-03-16T14:04:56.665Z,67.11
2017-03-16T14:06:08.894Z,66.74
2017-03-16T14:07:20.836Z,67.02
2017-03-16T14:08:32.500Z,67.69
2017-03-16T14:09:45.005Z,67.5
2017-03-16T14:10:57.223Z,67.41
2017-03-16T14:12:09.470Z,67.21
2017-03-16T14:13:21.987Z,67.5
2017-03-16T14:14:34.529Z,67.11
2017-03-16T14:15:46.778Z,66.74
2017-03-16T14:16:59.298Z,67.11
2017-03-16T14:18:11.841Z,67.6
2017-03-16T14:19:24.374Z,67.88
2017-03-16T14:20:36.936Z,67.6
2017-03-16T14:21:49.141Z,67.21
2017-03-16T14:23:01.686Z,67.21
2017-03-16T14:24:14.229Z,67.21
2017-03-16T14:25:26.771Z,66.93
2017-03-16T14:26:39.316Z,67.21
2017-03-16T14:27:51.566Z,67.5
2017-03-16T14:29:03.783Z,67.69
2017-03-16T14:30:16.036Z,67.21
2017-03-16T14:31:28.308Z,67.88
2017-03-16T14:32:40.546Z,67.6
2017-03-16T14:33:53.091Z,67.88
2017-03-16T14:35:05.635Z,68.17
2017-03-16T14:36:18.192Z,68.23
2017-03-16T14:37:30.134Z,68.46
2017-03-16T14:38:42.101Z,68.04
2017-03-16T14:39:54.056Z,68.07
2017-03-16T14:41:06.276Z,67.66
2017-03-16T14:42:18.813Z,66.89
2017-03-16T14:43:31.331Z,67.27
2017-03-16T14:44:43.881Z,66.89
2017-03-16T14:45:56.431Z,67.27
2017-03-16T14:47:08.645Z,67.18
2017-03-16T14:48:20.876Z,67.76
2017-03-16T14:49:33.422Z,67.76
2017-03-16T14:50:45.943Z,68.13
2017-03-16T14:51:58.506Z,68.77
2017-03-16T14:53:11.056Z,68.2
2017-03-16T14:54:23.598Z,68.52
2017-03-16T14:55:36.126Z,68.62
2017-03-16T14:56:48.648Z,69
2017-03-16T14:58:00.894Z,69.25
2017-03-16T14:59:13.402Z,69.73
2017-03-16T15:00:25.924Z,69.82
2017-03-16T15:01:38.471Z,69.15
2017-03-16T15:02:50.401Z,68.62
2017-03-16T15:04:02.612Z,68.87
2017-03-16T15:05:14.843Z,68.58
2017-03-16T15:06:27.089Z,68.58
2017-03-16T15:07:39.349Z,68.77
2017-03-16T15:08:51.878Z,68.13
2017-03-16T15:10:04.127Z,68.04
2017-03-16T15:11:16.090Z,67.94
2017-03-16T15:12:28.637Z,68.04
2017-03-16T15:13:41.166Z,67.66
2017-03-16T15:14:53.428Z,67.47
2017-03-16T15:16:05.981Z,66.96
2017-03-16T15:17:18.246Z,66.19
2017-03-16T15:18:30.500Z,66.19
2017-03-16T15:19:42.133Z,66.19
2017-03-16T15:20:54.663Z,66.09
2017-03-16T15:22:07.229Z,66.28
2017-03-16T15:23:19.475Z,66.57
2017-03-16T15:24:31.719Z,66.86
2017-03-16T15:25:43.974Z,66.67
2017-03-16T15:26:56.220Z,66.19
2017-03-16T15:28:08.755Z,66.57
2017-03-16T15:29:21.262Z,66.86
2017-03-16T15:30:33.172Z,67.34
2017-03-16T15:31:45.704Z,67.72
2017-03-16T15:32:58.215Z,67.14
2017-03-16T15:34:10.718Z,67.05
2017-03-16T15:35:22.937Z,66.47
2017-03-16T15:36:35.180Z,66.57